createdAt,value
2022-11-14T00:01:08.317Z,25.70
2022-11-14T00:03:35.012Z,28.47
2022-11-14T00:06:06.144Z,28.73
2022-11-14T00:08:32.880Z,28.57
2022-11-14T00:10:59.809Z,30.37
2022-11-14T00:13:26.458Z,29.90
2022-11-14T00:15:55.939Z,30.47
2022-11-14T00:18:23.537Z,30.03
2022-11-14T00:20:51.796Z,32.00
2022-11-14T00:23:22.490Z,30.67
2022-11-14T00:25:52.628Z,31.50
2022-11-14T00:28:19.254Z,29.50
2022-11-14T00:30:48.052Z,30.87
2022-11-14T00:33:19.766Z,34.43
2022-11-14T00:35:54.379Z,32.87
2022-11-14T00:38:21.448Z,33.42
2022-11-14T00:40:48.180Z,33.97
2022-11-14T00:43:14.917Z,35.87
2022-11-14T00:45:46.575Z,33.20
2022-11-14T00:48:13.943Z,35.23
2022-11-14T00:50:43.527Z,32.87
2022-11-14T00:53:10.554Z,32.87
2022-11-14T00:55:37.166Z,36.10
2022-11-14T00:58:04.348Z,33.37
2022-11-14T01:00:31.233Z,35.23
2022-11-14T01:03:01.366Z,34.10
2022-11-14T01:05:28.103Z,34.87
2022-11-14T01:07:54.755Z,33.53
2022-11-14T01:10:21.874Z,36.57
2022-11-14T01:12:48.638Z,32.33
2022-11-14T01:15:15.412Z,32.00
2022-11-14T01:17:42.034Z,34.93
2022-11-14T01:20:08.930Z,32.80
2022-11-14T01:22:38.365Z,31.37
2022-11-14T01:25:05.375Z,32.53
2022-11-14T01:27:32.038Z,33.60
2022-11-14T01:29:58.743Z,33.53
2022-11-14T01:32:27.161Z,32.27
2022-11-14T01:34:53.811Z,31.13
2022-11-14T01:37:20.462Z,34.23
2022-11-14T01:39:47.108Z,32.53
2022-11-14T01:42:13.724Z,33.40
2022-11-14T01:44:52.535Z,34.10
2022-11-14T01:47:22.845Z,33.50
2022-11-14T01:49:54.077Z,32.70
2022-11-14T01:52:32.297Z,32.23
2022-11-14T01:55:00.683Z,30.50
2022-11-14T01:57:34.060Z,32.67
2022-11-14T02:00:06.156Z,33.07
2022-11-14T02:02:32.784Z,32.47
2022-11-14T02:05:09.350Z,31.33
2022-11-14T02:07:39.216Z,31.60
2022-11-14T02:10:09.339Z,32.47
2022-11-14T02:12:36.450Z,32.67
2022-11-14T02:15:04.018Z,32.00
2022-11-14T02:17:31.265Z,31.70
2022-11-14T02:20:10.633Z,30.57
2022-11-14T02:22:39.318Z,29.73
2022-11-14T02:25:07.339Z,31.17
2022-11-14T02:27:35.047Z,30.80
2022-11-14T02:30:11.114Z,31.57
2022-11-14T02:33:08.883Z,32.57
2022-11-14T02:35:24.300Z,32.03
2022-11-14T02:37:50.954Z,31.93
2022-11-14T02:40:17.651Z,33.20
2022-11-14T02:42:44.452Z,33.10
2022-11-14T02:45:11.526Z,32.77
2022-11-14T02:47:38.160Z,31.13
2022-11-14T02:50:05.079Z,33.17
2022-11-14T02:52:31.689Z,32.37
2022-11-14T02:54:58.299Z,33.83
2022-11-14T02:57:24.932Z,33.97
2022-11-14T02:59:51.533Z,32.37
2022-11-14T03:02:18.191Z,34.90
2022-11-14T03:04:44.794Z,35.13
2022-11-14T03:07:11.630Z,31.23
2022-11-14T03:09:38.285Z,31.87
2022-11-14T03:12:04.996Z,31.97
2022-11-14T03:14:31.869Z,30.87
2022-11-14T03:16:58.480Z,31.40
2022-11-14T03:19:25.089Z,31.27
2022-11-14T03:21:51.694Z,33.63
2022-11-14T03:24:18.403Z,35.63
2022-11-14T03:26:45.018Z,31.03
2022-11-14T03:29:11.587Z,31.97
2022-11-14T03:31:38.216Z,32.77
2022-11-14T03:34:04.826Z,33.40
2022-11-14T03:36:31.519Z,31.80
2022-11-14T03:38:58.197Z,33.43
2022-11-14T03:41:24.783Z,32.60
2022-11-14T03:43:51.368Z,33.23
2022-11-14T03:46:17.952Z,32.97
2022-11-14T03:48:44.533Z,31.97
2022-11-14T03:51:11.124Z,32.80
2022-11-14T03:53:37.750Z,34.47
2022-11-14T03:56:04.601Z,34.47
2022-11-14T03:58:31.571Z,34.90
2022-11-14T04:00:58.593Z,35.27
2022-11-14T04:03:25.667Z,33.47
2022-11-14T04:05:52.308Z,35.67
2022-11-14T04:08:18.976Z,33.20
2022-11-14T04:10:49.290Z,33.20
2022-11-14T04:13:16.165Z,36.27
2022-11-14T04:15:43.236Z,36.13
2022-11-14T04:18:09.850Z,33.53
2022-11-14T04:20:36.639Z,33.77
2022-11-14T04:23:03.272Z,34.60
2022-11-14T04:25:29.921Z,35.17
2022-11-14T04:27:56.584Z,34.40
2022-11-14T04:30:23.263Z,36.87
2022-11-14T04:32:49.943Z,36.70
2022-11-14T04:35:16.640Z,34.30
2022-11-14T04:37:43.285Z,37.23
2022-11-14T04:40:10.178Z,37.00
2022-11-14T04:42:36.802Z,35.83
2022-11-14T04:45:03.599Z,33.33
2022-11-14T04:47:30.323Z,36.60
2022-11-14T04:49:56.942Z,36.77
2022-11-14T04:52:23.528Z,38.40
2022-11-14T04:54:50.227Z,38.57
2022-11-14T04:57:17.987Z,33.43
2022-11-14T04:59:44.691Z,36.97
2022-11-14T05:02:11.383Z,38.33
2022-11-14T05:04:38.160Z,35.70
2022-11-14T05:07:04.904Z,33.43
2022-11-14T05:09:31.832Z,37.23
2022-11-14T05:12:08.804Z,36.60
2022-11-14T05:14:55.458Z,34.70
2022-11-14T05:17:22.261Z,39.23
2022-11-14T05:19:48.964Z,35.77
2022-11-14T05:22:15.675Z,36.27
2022-11-14T05:24:42.293Z,36.17
2022-11-14T05:27:08.902Z,37.53
2022-11-14T05:29:35.506Z,36.67
2022-11-14T05:32:02.184Z,36.17
2022-11-14T05:34:28.809Z,37.07
2022-11-14T05:36:55.642Z,36.90
2022-11-14T05:39:22.253Z,37.33
2022-11-14T05:41:48.835Z,36.47
2022-11-14T05:44:15.604Z,34.77
2022-11-14T05:46:42.248Z,39.20
2022-11-14T05:49:08.850Z,34.17
2022-11-14T05:51:35.482Z,34.77
2022-11-14T05:54:02.210Z,33.90
2022-11-14T05:56:28.833Z,35.73
2022-11-14T05:58:55.539Z,35.20
2022-11-14T06:01:22.194Z,34.93
2022-11-14T06:03:49.026Z,35.03
2022-11-14T06:06:18.338Z,34.00
2022-11-14T06:08:44.997Z,35.63
2022-11-14T06:11:17.197Z,35.37
2022-11-14T06:13:43.862Z,35.90
2022-11-14T06:16:13.581Z,35.13
2022-11-14T06:18:40.325Z,35.43
2022-11-14T06:21:12.743Z,33.37
2022-11-14T06:23:39.436Z,33.47
2022-11-14T06:26:08.327Z,35.20
2022-11-14T06:28:34.890Z,33.80
2022-11-14T06:31:05.039Z,35.70
2022-11-14T06:33:36.076Z,33.53
2022-11-14T06:36:07.467Z,32.83
2022-11-14T06:38:36.322Z,29.60
2022-11-14T06:41:07.333Z,31.23
2022-11-14T06:43:35.064Z,31.73
2022-11-14T06:46:02.470Z,31.07
2022-11-14T06:48:29.546Z,32.13
2022-11-14T06:50:58.068Z,32.47
2022-11-14T06:53:24.969Z,32.67
2022-11-14T06:56:16.356Z,33.87
2022-11-14T06:58:48.809Z,33.77
2022-11-14T07:01:22.428Z,33.27
2022-11-14T07:03:49.662Z,31.75
2022-11-14T07:06:18.608Z,33.23
2022-11-14T07:08:45.421Z,31.13
2022-11-14T07:11:23.019Z,32.47
2022-11-14T07:13:55.466Z,32.93
2022-11-14T07:16:48.543Z,32.27
2022-11-14T07:19:15.298Z,33.17
2022-11-14T07:21:42.050Z,34.83
2022-11-14T07:24:08.675Z,33.37
2022-11-14T07:26:35.353Z,35.33
2022-11-14T07:29:02.949Z,34.60
2022-11-14T07:31:29.782Z,32.40
2022-11-14T07:33:56.414Z,32.70
2022-11-14T07:36:23.421Z,34.37
2022-11-14T07:38:50.039Z,34.33
2022-11-14T07:41:16.675Z,33.53
2022-11-14T07:43:43.280Z,32.87
2022-11-14T07:46:15.567Z,32.50
2022-11-14T07:48:42.230Z,33.13
2022-11-14T07:51:17.449Z,36.47
2022-11-14T07:53:44.417Z,33.13
2022-11-14T07:56:11.625Z,35.17
2022-11-14T07:58:39.428Z,33.33
2022-11-14T08:01:07.717Z,33.97
2022-11-14T08:03:35.034Z,32.87
2022-11-14T08:06:09.871Z,32.87
2022-11-14T08:08:36.739Z,33.77
2022-11-14T08:11:03.695Z,31.37
2022-11-14T08:13:32.802Z,31.47
2022-11-14T08:16:09.190Z,31.57
2022-11-14T08:18:38.774Z,31.57
2022-11-14T08:21:05.593Z,28.60
2022-11-14T08:23:32.387Z,33.33
2022-11-14T08:25:59.967Z,30.50
2022-11-14T08:28:26.877Z,29.97
2022-11-14T08:30:59.142Z,31.57
2022-11-14T08:33:25.751Z,28.97
2022-11-14T08:35:52.346Z,30.07
2022-11-14T08:38:18.995Z,30.43
2022-11-14T08:40:45.578Z,29.83
2022-11-14T08:43:12.147Z,27.10
2022-11-14T08:45:38.722Z,30.57
2022-11-14T08:48:05.894Z,31.00
2022-11-14T08:50:32.550Z,31.17
2022-11-14T08:52:59.135Z,29.50
2022-11-14T08:55:25.802Z,31.03
2022-11-14T08:57:53.361Z,30.83
2022-11-14T09:00:20.271Z,28.27
2022-11-14T09:02:47.183Z,29.10
2022-11-14T09:05:13.828Z,30.07
2022-11-14T09:07:40.435Z,29.83
2022-11-14T09:10:07.578Z,29.07
2022-11-14T09:12:34.276Z,30.83
2022-11-14T09:15:01.030Z,26.67
2022-11-14T09:17:27.829Z,27.10
2022-11-14T09:19:54.474Z,25.50
2022-11-14T09:22:21.249Z,27.53
2022-11-14T09:24:49.399Z,25.40
2022-11-14T09:27:16.025Z,28.30
2022-11-14T09:29:43.678Z,26.50
2022-11-14T09:32:10.357Z,27.30
2022-11-14T09:34:37.357Z,26.27
2022-11-14T09:37:03.972Z,28.33
2022-11-14T09:39:30.605Z,27.10
2022-11-14T09:42:06.035Z,27.07
2022-11-14T09:44:47.545Z,28.13
2022-11-14T09:47:20.723Z,27.07
2022-11-14T09:49:49.825Z,28.70
2022-11-14T09:52:39.643Z,26.47
2022-11-14T09:55:36.930Z,26.27
2022-11-14T09:58:04.429Z,27.67
2022-11-14T10:00:52.246Z,26.13
2022-11-14T10:03:24.761Z,26.70
2022-11-14T10:06:08.638Z,26.87
2022-11-14T10:08:41.160Z,25.85
2022-11-14T10:11:20.065Z,25.87
2022-11-14T10:14:03.382Z,25.70
2022-11-14T10:16:29.862Z,28.53
2022-11-14T10:19:50.670Z,25.50
2022-11-14T10:22:41.511Z,26.60
2022-11-14T10:25:25.902Z,25.03
2022-11-14T10:28:23.534Z,25.67
2022-11-14T10:30:59.017Z,26.10
2022-11-14T10:34:07.402Z,24.23
2022-11-14T10:36:50.613Z,24.10
2022-11-14T10:39:35.164Z,23.97
2022-11-14T10:42:08.614Z,25.42
2022-11-14T10:44:43.416Z,23.80
2022-11-14T10:47:15.220Z,23.60
2022-11-14T10:49:42.556Z,25.17
2022-11-14T10:52:18.656Z,25.00
2022-11-14T10:54:48.761Z,24.75
2022-11-14T10:57:21.150Z,23.15
2022-11-14T10:59:48.456Z,25.83
2022-11-14T11:02:15.446Z,24.95
2022-11-14T11:04:43.579Z,24.25
2022-11-14T11:07:10.246Z,26.42
2022-11-14T11:09:57.793Z,27.05
2022-11-14T11:12:40.774Z,24.05
2022-11-14T11:15:14.194Z,24.17
2022-11-14T11:18:21.912Z,23.40
2022-11-14T11:21:01.953Z,24.40
2022-11-14T11:23:28.846Z,24.38
2022-11-14T11:26:01.143Z,23.48
2022-11-14T11:28:30.331Z,23.45
2022-11-14T11:30:59.070Z,23.67
2022-11-14T11:33:28.327Z,23.70
2022-11-14T11:35:57.647Z,25.80
2022-11-14T11:38:29.930Z,23.80
2022-11-14T11:42:06.234Z,23.52
2022-11-14T11:44:21.089Z,22.85
2022-11-14T11:46:54.277Z,23.38
2022-11-14T11:49:48.669Z,22.38
2022-11-14T11:52:26.882Z,25.95
2022-11-14T11:55:08.650Z,21.92
2022-11-14T11:57:48.884Z,23.73
2022-11-14T12:00:18.275Z,22.88
2022-11-14T12:02:49.994Z,23.83
2022-11-14T12:05:23.757Z,22.58
2022-11-14T12:08:04.498Z,22.60
2022-11-14T12:10:34.345Z,22.67
2022-11-14T12:13:19.429Z,22.05
2022-11-14T12:15:55.850Z,22.58
2022-11-14T12:18:38.150Z,21.50
2022-11-14T12:21:15.403Z,21.90
2022-11-14T12:23:57.165Z,21.45
2022-11-14T12:27:24.519Z,22.98
2022-11-14T12:30:04.627Z,22.90
2022-11-14T12:32:57.481Z,23.85
2022-11-14T12:35:26.803Z,22.50
2022-11-14T12:37:56.067Z,22.13
2022-11-14T12:40:34.620Z,23.13
2022-11-14T12:43:02.631Z,24.67
2022-11-14T12:45:41.456Z,21.40
2022-11-14T12:48:14.249Z,21.70
2022-11-14T12:50:42.541Z,22.50
2022-11-14T12:53:38.177Z,20.23
2022-11-14T12:56:16.779Z,22.45
2022-11-14T12:59:06.418Z,23.25
2022-11-14T13:01:41.677Z,23.30
2022-11-14T13:04:26.739Z,21.20
2022-11-14T13:07:12.294Z,22.15
2022-11-14T13:09:58.162Z,22.33
2022-11-14T13:12:53.450Z,20.83
2022-11-14T13:15:50.009Z,21.15
2022-11-14T13:18:43.409Z,21.85
2022-11-14T13:21:43.788Z,23.02
2022-11-14T13:24:16.532Z,19.58
2022-11-14T13:26:48.540Z,22.10
2022-11-14T13:29:41.241Z,21.55
2022-11-14T13:32:11.983Z,20.77
2022-11-14T13:34:45.277Z,22.33
2022-11-14T13:37:40.128Z,23.60
2022-11-14T13:42:48.139Z,21.38
2022-11-14T13:45:41.470Z,20.77
2022-11-14T13:48:33.873Z,20.73
2022-11-14T13:51:21.786Z,19.33
2022-11-14T13:53:52.294Z,20.63
2022-11-14T13:56:32.579Z,20.63
2022-11-14T13:59:20.893Z,20.95
2022-11-14T14:01:50.608Z,22.85
2022-11-14T14:04:54.862Z,21.42
2022-11-14T14:07:44.931Z,24.20
2022-11-14T14:10:24.771Z,22.30
2022-11-14T14:13:19.850Z,21.63
2022-11-14T14:15:58.065Z,22.67
2022-11-14T14:18:54.179Z,21.42
2022-11-14T14:21:51.809Z,24.00
2022-11-14T14:24:47.203Z,23.63
2022-11-14T14:27:20.723Z,23.10
2022-11-14T14:30:01.439Z,22.70
2022-11-14T14:32:28.172Z,21.98
2022-11-14T14:34:58.485Z,21.85
2022-11-14T14:37:27.452Z,23.70
2022-11-14T14:40:01.162Z,22.10
2022-11-14T14:42:35.207Z,36.78
2022-11-14T14:45:03.181Z,38.97
2022-11-14T14:47:34.297Z,36.27
2022-11-14T14:50:03.502Z,28.73
2022-11-14T14:52:37.716Z,25.37
2022-11-14T14:55:06.733Z,24.77
2022-11-14T14:57:33.631Z,23.50
2022-11-14T15:00:00.863Z,23.53
2022-11-14T15:02:28.548Z,23.23
2022-11-14T15:04:56.161Z,25.00
2022-11-14T15:07:25.128Z,23.07
2022-11-14T15:09:57.331Z,23.97
2022-11-14T15:12:25.554Z,24.43
2022-11-14T15:14:53.731Z,23.53
2022-11-14T15:17:22.060Z,23.70
2022-11-14T15:19:50.674Z,23.30
2022-11-14T15:22:20.492Z,22.80
2022-11-14T15:25:11.696Z,20.97
2022-11-14T15:27:48.811Z,23.10
2022-11-14T15:30:27.599Z,22.47
2022-11-14T15:32:56.407Z,22.13
2022-11-14T15:35:25.480Z,24.20
2022-11-14T15:38:36.747Z,23.60
2022-11-14T15:41:18.442Z,22.50
2022-11-14T15:43:45.053Z,22.27
2022-11-14T15:46:28.919Z,22.77
2022-11-14T15:48:55.979Z,24.92
2022-11-14T15:51:40.007Z,25.00
2022-11-14T15:54:20.403Z,24.27
2022-11-14T15:56:48.510Z,22.90
2022-11-14T15:59:15.444Z,24.00
2022-11-14T16:01:43.588Z,22.07
2022-11-14T16:04:15.192Z,23.60
2022-11-14T16:06:41.900Z,25.37
2022-11-14T16:09:14.332Z,23.10
2022-11-14T16:11:40.921Z,24.63
2022-11-14T16:14:09.754Z,22.23
2022-11-14T16:16:36.592Z,22.13
2022-11-14T16:19:03.500Z,23.63
2022-11-14T16:21:30.193Z,23.43
2022-11-14T16:23:59.459Z,25.60
2022-11-14T16:26:26.360Z,25.60
2022-11-14T16:28:53.203Z,25.90
2022-11-14T16:31:20.739Z,24.90
2022-11-14T16:33:50.217Z,26.13
2022-11-14T16:36:20.785Z,29.77
2022-11-14T16:38:51.995Z,29.37
2022-11-14T16:41:19.661Z,30.57
2022-11-14T16:43:46.350Z,28.87
2022-11-14T16:46:12.946Z,29.90
2022-11-14T16:48:39.541Z,29.00
2022-11-14T16:51:20.219Z,36.17
2022-11-14T16:53:56.648Z,34.10
2022-11-14T16:56:23.604Z,31.17
2022-11-14T16:58:54.563Z,31.70
2022-11-14T17:01:21.825Z,31.60
2022-11-14T17:03:48.491Z,29.17
2022-11-14T17:06:15.144Z,28.43
2022-11-14T17:08:41.752Z,28.10
2022-11-14T17:11:09.886Z,26.10
2022-11-14T17:13:37.420Z,26.97
2022-11-14T17:16:04.894Z,26.90
2022-11-14T17:18:37.104Z,25.73
2022-11-14T17:21:09.501Z,25.40
2022-11-14T17:23:36.117Z,26.57
2022-11-14T17:26:03.669Z,30.37
2022-11-14T17:28:31.031Z,28.07
2022-11-14T17:30:58.114Z,27.13
2022-11-14T17:33:24.757Z,28.70
2022-11-14T17:35:51.426Z,27.00
2022-11-14T17:38:18.121Z,25.67
2022-11-14T17:40:44.786Z,24.80
2022-11-14T17:43:11.430Z,25.97
2022-11-14T17:45:41.106Z,25.47
2022-11-14T17:48:08.136Z,25.83
2022-11-14T17:50:38.613Z,25.97
2022-11-14T17:53:05.205Z,27.43
2022-11-14T17:55:31.903Z,29.87
2022-11-14T17:57:58.489Z,33.67
2022-11-14T18:00:25.158Z,24.67
2022-11-14T18:02:52.367Z,27.37
2022-11-14T18:05:19.103Z,28.77
2022-11-14T18:07:45.842Z,27.40
2022-11-14T18:10:12.506Z,29.03
2022-11-14T18:12:42.282Z,27.50
2022-11-14T18:15:09.216Z,31.67
2022-11-14T18:17:35.809Z,32.00
2022-11-14T18:20:02.736Z,31.20
2022-11-14T18:22:29.485Z,37.77
2022-11-14T18:24:56.129Z,36.80
2022-11-14T18:27:22.878Z,37.90
2022-11-14T18:29:49.470Z,33.77
2022-11-14T18:32:16.152Z,36.33
2022-11-14T18:34:42.728Z,32.93
2022-11-14T18:37:09.563Z,34.13
2022-11-14T18:39:36.206Z,45.40
2022-11-14T18:42:02.888Z,31.73
2022-11-14T18:44:29.867Z,46.40
2022-11-14T18:46:56.496Z,41.70
2022-11-14T18:49:23.153Z,35.73
2022-11-14T18:51:49.744Z,30.73
2022-11-14T18:54:17.151Z,34.13
2022-11-14T18:56:44.119Z,31.23
2022-11-14T18:59:10.801Z,33.77
2022-11-14T19:01:37.447Z,32.53
2022-11-14T19:04:06.018Z,34.07
2022-11-14T19:06:34.695Z,34.00
2022-11-14T19:09:11.385Z,32.33
2022-11-14T19:11:57.003Z,33.27
2022-11-14T19:14:23.808Z,31.97
2022-11-14T19:16:50.417Z,33.37
2022-11-14T19:19:17.072Z,34.80
2022-11-14T19:21:43.917Z,35.70
2022-11-14T19:24:10.552Z,33.13
2022-11-14T19:26:37.202Z,31.93
2022-11-14T19:29:05.596Z,43.30
2022-11-14T19:31:33.243Z,31.50
2022-11-14T19:34:00.350Z,33.00
2022-11-14T19:36:57.844Z,33.93
2022-11-14T19:39:13.870Z,32.80
2022-11-14T19:41:40.834Z,35.27
2022-11-14T19:44:07.498Z,31.67
2022-11-14T19:46:36.290Z,36.40
2022-11-14T19:49:03.927Z,32.03
2022-11-14T19:51:31.068Z,37.87
2022-11-14T19:53:58.573Z,37.03
2022-11-14T19:56:29.040Z,38.07
2022-11-14T19:58:56.745Z,36.87
2022-11-14T20:01:26.229Z,36.83
2022-11-14T20:04:01.208Z,37.07
2022-11-14T20:06:34.991Z,32.43
2022-11-14T20:09:04.536Z,37.65
2022-11-14T20:11:31.328Z,38.67
2022-11-14T20:13:58.575Z,38.00
2022-11-14T20:16:30.443Z,39.83
2022-11-14T20:19:00.017Z,35.37
2022-11-14T20:21:28.859Z,38.80
2022-11-14T20:23:55.626Z,37.37
2022-11-14T20:26:22.469Z,36.67
2022-11-14T20:28:52.077Z,35.83
2022-11-14T20:31:24.642Z,36.77
2022-11-14T20:33:52.906Z,37.57
2022-11-14T20:36:21.868Z,34.10
2022-11-14T20:38:49.048Z,38.30
2022-11-14T20:41:16.086Z,36.50
2022-11-14T20:43:43.239Z,34.93
2022-11-14T20:46:14.997Z,37.97
2022-11-14T20:48:41.879Z,38.67
2022-11-14T20:51:25.648Z,36.27
2022-11-14T20:53:54.112Z,40.28
2022-11-14T20:56:21.745Z,37.53
2022-11-14T20:58:51.695Z,39.27
2022-11-14T21:01:18.724Z,37.13
2022-11-14T21:03:45.645Z,36.87
2022-11-14T21:06:13.183Z,38.57
2022-11-14T21:08:40.080Z,35.73
2022-11-14T21:11:12.286Z,36.20
2022-11-14T21:13:58.729Z,37.07
2022-11-14T21:16:34.544Z,36.90
2022-11-14T21:19:03.362Z,37.37
2022-11-14T21:21:30.637Z,38.23
2022-11-14T21:23:57.550Z,39.03
2022-11-14T21:26:26.526Z,37.17
2022-11-14T21:28:55.432Z,36.80
2022-11-14T21:31:33.650Z,38.43
2022-11-14T21:34:02.250Z,36.37
2022-11-14T21:36:44.291Z,33.70
2022-11-14T21:39:14.610Z,33.47
2022-11-14T21:41:42.068Z,36.70
2022-11-14T21:44:13.778Z,36.13
2022-11-14T21:46:41.245Z,37.00
2022-11-14T21:49:08.356Z,37.07
2022-11-14T21:51:35.226Z,38.57
2022-11-14T21:54:02.881Z,34.60
2022-11-14T21:56:31.159Z,35.50
2022-11-14T21:59:21.407Z,35.80
2022-11-14T22:02:08.283Z,34.53
2022-11-14T22:04:35.525Z,33.47
2022-11-14T22:07:04.221Z,35.37
2022-11-14T22:09:31.180Z,34.07
2022-11-14T22:11:58.028Z,36.00
2022-11-14T22:14:24.981Z,38.30
2022-11-14T22:16:51.798Z,34.57
2022-11-14T22:19:19.031Z,35.80
2022-11-14T22:21:45.758Z,33.27
2022-11-14T22:24:12.414Z,33.93
2022-11-14T22:26:40.420Z,35.87
2022-11-14T22:29:07.841Z,35.20
2022-11-14T22:31:34.571Z,37.93
2022-11-14T22:34:01.283Z,32.33
2022-11-14T22:36:29.025Z,34.20
2022-11-14T22:38:56.620Z,35.30
2022-11-14T22:41:32.953Z,35.37
2022-11-14T22:44:00.725Z,35.93
2022-11-14T22:46:27.932Z,34.30
2022-11-14T22:48:54.865Z,35.93
2022-11-14T22:51:23.791Z,33.07
2022-11-14T22:53:52.212Z,34.83
2022-11-14T22:56:20.592Z,33.30
2022-11-14T22:58:47.293Z,32.50
2022-11-14T23:01:32.174Z,35.03
2022-11-14T23:04:04.153Z,32.20
2022-11-14T23:06:32.995Z,34.47
2022-11-14T23:09:00.670Z,33.40
2022-11-14T23:11:29.951Z,34.53
2022-11-14T23:13:57.651Z,34.70
2022-11-14T23:16:26.651Z,33.47
2022-11-14T23:18:55.323Z,32.27
2022-11-14T23:21:29.962Z,32.77
2022-11-14T23:24:01.047Z,31.30
2022-11-14T23:26:29.374Z,32.37
2022-11-14T23:28:57.512Z,32.40
2022-11-14T23:31:25.095Z,33.00
2022-11-14T23:33:53.992Z,31.30
2022-11-14T23:36:20.649Z,29.23
2022-11-14T23:38:47.313Z,30.80
2022-11-14T23:41:19.148Z,31.30
2022-11-14T23:43:46.391Z,32.03
2022-11-14T23:46:13.975Z,32.13
2022-11-14T23:48:41.002Z,30.70
2022-11-14T23:51:07.802Z,32.27
2022-11-14T23:53:34.605Z,30.17
2022-11-14T23:56:02.034Z,32.13
2022-11-14T23:58:29.945Z,28.97
